sensor_id;sensor_type;location;lat;lon;timestamp;temperature;humidity
13569;DHT22;6856;51.460;7.158;2023-07-29T00:00:50;23.70;67.70
13569;DHT22;6856;51.460;7.158;2023-07-29T00:03:23;23.70;67.60
13569;DHT22;6856;51.460;7.158;2023-07-29T00:05:57;23.70;67.50
13569;DHT22;6856;51.460;7.158;2023-07-29T00:08:31;23.70;67.60
13569;DHT22;6856;51.460;7.158;2023-07-29T00:11:06;23.70;67.50
13569;DHT22;6856;51.460;7.158;2023-07-29T00:13:39;23.60;67.50
13569;DHT22;6856;51.460;7.158;2023-07-29T00:16:14;23.60;67.50
13569;DHT22;6856;51.460;7.158;2023-07-29T00:18:49;23.60;67.50
13569;DHT22;6856;51.460;7.158;2023-07-29T00:21:23;23.60;67.70
13569;DHT22;6856;51.460;7.158;2023-07-29T00:23:57;23.50;67.70
13569;DHT22;6856;51.460;7.158;2023-07-29T00:26:34;23.50;67.90
13569;DHT22;6856;51.460;7.158;2023-07-29T00:29:09;23.50;68.00
13569;DHT22;6856;51.460;7.158;2023-07-29T00:31:42;23.40;68.10
13569;DHT22;6856;51.460;7.158;2023-07-29T00:34:17;23.40;68.20
13569;DHT22;6856;51.460;7.158;2023-07-29T00:36:51;23.40;68.30
13569;DHT22;6856;51.460;7.158;2023-07-29T00:39:25;23.40;68.30
13569;DHT22;6856;51.460;7.158;2023-07-29T00:42:00;23.30;68.30
13569;DHT22;6856;51.460;7.158;2023-07-29T00:44:34;23.30;68.30
13569;DHT22;6856;51.460;7.158;2023-07-29T00:47:08;23.30;68.40
13569;DHT22;6856;51.460;7.158;2023-07-29T00:49:44;23.30;68.50
13569;DHT22;6856;51.460;7.158;2023-07-29T00:52:18;23.30;68.50
13569;DHT22;6856;51.460;7.158;2023-07-29T00:54:52;23.30;68.50
13569;DHT22;6856;51.460;7.158;2023-07-29T00:57:29;23.40;68.70
13569;DHT22;6856;51.460;7.158;2023-07-29T01:00:06;23.30;68.70
13569;DHT22;6856;51.460;7.158;2023-07-29T01:02:41;23.30;68.60
13569;DHT22;6856;51.460;7.158;2023-07-29T01:05:16;23.30;68.50
13569;DHT22;6856;51.460;7.158;2023-07-29T01:07:58;23.30;68.60
13569;DHT22;6856;51.460;7.158;2023-07-29T01:10:42;23.40;68.60
13569;DHT22;6856;51.460;7.158;2023-07-29T01:13:33;23.40;68.50
13569;DHT22;6856;51.460;7.158;2023-07-29T01:16:16;23.40;68.40
13569;DHT22;6856;51.460;7.158;2023-07-29T01:18:52;23.40;68.30
13569;DHT22;6856;51.460;7.158;2023-07-29T01:21:28;23.40;68.30
13569;DHT22;6856;51.460;7.158;2023-07-29T01:24:04;23.40;68.20
13569;DHT22;6856;51.460;7.158;2023-07-29T01:26:38;23.40;68.20
13569;DHT22;6856;51.460;7.158;2023-07-29T01:29:12;23.40;68.10
13569;DHT22;6856;51.460;7.158;2023-07-29T01:31:51;23.30;68.10
13569;DHT22;6856;51.460;7.158;2023-07-29T01:34:32;23.30;68.10
13569;DHT22;6856;51.460;7.158;2023-07-29T01:37:21;23.30;68.00
13569;DHT22;6856;51.460;7.158;2023-07-29T01:40:01;23.30;68.00
13569;DHT22;6856;51.460;7.158;2023-07-29T01:42:35;23.30;68.10
13569;DHT22;6856;51.460;7.158;2023-07-29T01:45:09;23.30;68.10
13569;DHT22;6856;51.460;7.158;2023-07-29T01:47:43;23.30;68.00
13569;DHT22;6856;51.460;7.158;2023-07-29T01:50:17;23.30;68.10
13569;DHT22;6856;51.460;7.158;2023-07-29T01:52:51;23.30;68.10
13569;DHT22;6856;51.460;7.158;2023-07-29T01:55:27;23.30;68.10
13569;DHT22;6856;51.460;7.158;2023-07-29T01:58:00;23.20;68.70
13569;DHT22;6856;51.460;7.158;2023-07-29T02:00:37;23.30;68.10
13569;DHT22;6856;51.460;7.158;2023-07-29T02:03:11;23.20;68.00
13569;DHT22;6856;51.460;7.158;2023-07-29T02:05:45;23.20;68.10
13569;DHT22;6856;51.460;7.158;2023-07-29T02:08:19;23.20;68.10
13569;DHT22;6856;51.460;7.158;2023-07-29T02:10:54;23.20;68.10
13569;DHT22;6856;51.460;7.158;2023-07-29T02:13:27;23.20;68.10
13569;DHT22;6856;51.460;7.158;2023-07-29T02:16:01;23.20;68.10
13569;DHT22;6856;51.460;7.158;2023-07-29T02:18:35;23.20;68.20
13569;DHT22;6856;51.460;7.158;2023-07-29T02:21:09;23.20;68.20
13569;DHT22;6856;51.460;7.158;2023-07-29T02:23:42;23.20;68.90
13569;DHT22;6856;51.460;7.158;2023-07-29T02:26:18;23.20;68.20
13569;DHT22;6856;51.460;7.158;2023-07-29T02:28:51;23.20;68.20
13569;DHT22;6856;51.460;7.158;2023-07-29T02:31:25;23.20;68.90
13569;DHT22;6856;51.460;7.158;2023-07-29T02:33:59;23.20;68.20
13569;DHT22;6856;51.460;7.158;2023-07-29T02:36:32;23.20;68.20
13569;DHT22;6856;51.460;7.158;2023-07-29T02:39:09;23.20;68.20
13569;DHT22;6856;51.460;7.158;2023-07-29T02:41:44;23.20;68.30
13569;DHT22;6856;51.460;7.158;2023-07-29T02:44:18;23.20;68.30
13569;DHT22;6856;51.460;7.158;2023-07-29T02:46:52;23.20;68.30
13569;DHT22;6856;51.460;7.158;2023-07-29T02:49:27;23.10;68.30
13569;DHT22;6856;51.460;7.158;2023-07-29T02:52:02;23.20;68.50
13569;DHT22;6856;51.460;7.158;2023-07-29T02:54:35;23.10;68.50
13569;DHT22;6856;51.460;7.158;2023-07-29T02:57:13;23.10;68.40
13569;DHT22;6856;51.460;7.158;2023-07-29T02:59:47;23.10;68.50
13569;DHT22;6856;51.460;7.158;2023-07-29T03:02:21;23.10;68.50
13569;DHT22;6856;51.460;7.158;2023-07-29T03:04:55;23.10;68.50
13569;DHT22;6856;51.460;7.158;2023-07-29T03:07:28;23.10;68.50
13569;DHT22;6856;51.460;7.158;2023-07-29T03:10:02;23.10;68.50
13569;DHT22;6856;51.460;7.158;2023-07-29T03:12:37;23.10;68.60
13569;DHT22;6856;51.460;7.158;2023-07-29T03:15:11;23.10;68.60
13569;DHT22;6856;51.460;7.158;2023-07-29T03:17:45;23.10;68.70
13569;DHT22;6856;51.460;7.158;2023-07-29T03:20:19;23.10;68.70
13569;DHT22;6856;51.460;7.158;2023-07-29T03:22:53;23.10;68.90
13569;DHT22;6856;51.460;7.158;2023-07-29T03:25:27;23.00;68.80
13569;DHT22;6856;51.460;7.158;2023-07-29T03:28:02;23.00;68.90
13569;DHT22;6856;51.460;7.158;2023-07-29T03:30:37;23.00;69.00
13569;DHT22;6856;51.460;7.158;2023-07-29T03:33:10;23.00;68.90
13569;DHT22;6856;51.460;7.158;2023-07-29T03:35:44;23.00;68.90
13569;DHT22;6856;51.460;7.158;2023-07-29T03:38:18;23.00;68.90
13569;DHT22;6856;51.460;7.158;2023-07-29T03:40:52;23.00;68.90
13569;DHT22;6856;51.460;7.158;2023-07-29T03:43:28;23.00;69.00
13569;DHT22;6856;51.460;7.158;2023-07-29T03:46:04;23.00;69.00
13569;DHT22;6856;51.460;7.158;2023-07-29T03:48:42;23.00;69.70
13569;DHT22;6856;51.460;7.158;2023-07-29T03:51:16;23.00;69.00
13569;DHT22;6856;51.460;7.158;2023-07-29T03:53:50;23.00;69.00
13569;DHT22;6856;51.460;7.158;2023-07-29T03:56:23;23.00;69.00
13569;DHT22;6856;51.460;7.158;2023-07-29T03:59:04;23.00;69.00
13569;DHT22;6856;51.460;7.158;2023-07-29T04:01:38;23.00;69.20
13569;DHT22;6856;51.460;7.158;2023-07-29T04:04:12;23.00;69.00
13569;DHT22;6856;51.460;7.158;2023-07-29T04:06:45;23.00;69.80
13569;DHT22;6856;51.460;7.158;2023-07-29T04:09:19;23.00;69.00
13569;DHT22;6856;51.460;7.158;2023-07-29T04:11:53;23.00;69.00
13569;DHT22;6856;51.460;7.158;2023-07-29T04:14:28;23.00;69.10
13569;DHT22;6856;51.460;7.158;2023-07-29T04:17:02;23.00;69.00
13569;DHT22;6856;51.460;7.158;2023-07-29T04:19:36;23.00;69.10
13569;DHT22;6856;51.460;7.158;2023-07-29T04:22:10;23.00;69.00
13569;DHT22;6856;51.460;7.158;2023-07-29T04:24:44;23.00;69.00
13569;DHT22;6856;51.460;7.158;2023-07-29T04:27:18;23.00;69.20
13569;DHT22;6856;51.460;7.158;2023-07-29T04:29:53;23.00;69.20
13569;DHT22;6856;51.460;7.158;2023-07-29T04:32:27;23.00;69.30
13569;DHT22;6856;51.460;7.158;2023-07-29T04:35:01;23.00;69.30
13569;DHT22;6856;51.460;7.158;2023-07-29T04:37:35;23.00;69.30
13569;DHT22;6856;51.460;7.158;2023-07-29T04:40:09;23.00;69.30
13569;DHT22;6856;51.460;7.158;2023-07-29T04:42:42;23.00;69.50
13569;DHT22;6856;51.460;7.158;2023-07-29T04:45:18;23.00;69.40
13569;DHT22;6856;51.460;7.158;2023-07-29T04:47:52;23.00;69.50
13569;DHT22;6856;51.460;7.158;2023-07-29T04:50:25;23.00;69.40
13569;DHT22;6856;51.460;7.158;2023-07-29T04:52:59;23.00;69.40
13569;DHT22;6856;51.460;7.158;2023-07-29T04:55:33;23.00;69.50
13569;DHT22;6856;51.460;7.158;2023-07-29T04:58:07;23.00;69.50
13569;DHT22;6856;51.460;7.158;2023-07-29T05:00:42;22.90;69.40
13569;DHT22;6856;51.460;7.158;2023-07-29T05:03:16;22.90;69.40
13569;DHT22;6856;51.460;7.158;2023-07-29T05:05:49;22.90;69.40
13569;DHT22;6856;51.460;7.158;2023-07-29T05:08:25;22.90;69.50
13569;DHT22;6856;51.460;7.158;2023-07-29T05:10:59;22.80;69.50
13569;DHT22;6856;51.460;7.158;2023-07-29T05:13:33;22.80;69.40
13569;DHT22;6856;51.460;7.158;2023-07-29T05:16:08;22.80;69.50
13569;DHT22;6856;51.460;7.158;2023-07-29T05:18:41;22.80;69.60
13569;DHT22;6856;51.460;7.158;2023-07-29T05:21:15;22.70;69.70
13569;DHT22;6856;51.460;7.158;2023-07-29T05:23:49;22.70;69.70
13569;DHT22;6856;51.460;7.158;2023-07-29T05:26:24;22.70;69.80
13569;DHT22;6856;51.460;7.158;2023-07-29T05:28:59;22.70;69.80
13569;DHT22;6856;51.460;7.158;2023-07-29T05:31:34;22.60;69.80
13569;DHT22;6856;51.460;7.158;2023-07-29T05:34:07;22.60;69.80
13569;DHT22;6856;51.460;7.158;2023-07-29T05:36:41;22.60;69.80
13569;DHT22;6856;51.460;7.158;2023-07-29T05:39:15;22.60;69.90
13569;DHT22;6856;51.460;7.158;2023-07-29T05:41:49;22.60;70.00
13569;DHT22;6856;51.460;7.158;2023-07-29T05:44:23;22.70;70.10
13569;DHT22;6856;51.460;7.158;2023-07-29T05:46:58;22.70;70.00
13569;DHT22;6856;51.460;7.158;2023-07-29T05:49:31;22.70;70.00
13569;DHT22;6856;51.460;7.158;2023-07-29T05:52:06;22.70;69.90
13569;DHT22;6856;51.460;7.158;2023-07-29T05:54:40;22.70;70.00
13569;DHT22;6856;51.460;7.158;2023-07-29T05:57:15;22.70;70.00
13569;DHT22;6856;51.460;7.158;2023-07-29T05:59:49;22.70;70.00
13569;DHT22;6856;51.460;7.158;2023-07-29T06:02:24;22.70;69.80
13569;DHT22;6856;51.460;7.158;2023-07-29T06:04:59;22.70;69.20
13569;DHT22;6856;51.460;7.158;2023-07-29T06:07:35;22.70;69.10
13569;DHT22;6856;51.460;7.158;2023-07-29T06:10:09;22.60;68.90
13569;DHT22;6856;51.460;7.158;2023-07-29T06:12:43;22.60;68.90
13569;DHT22;6856;51.460;7.158;2023-07-29T06:15:18;22.50;68.90
13569;DHT22;6856;51.460;7.158;2023-07-29T06:17:56;22.50;68.90
13569;DHT22;6856;51.460;7.158;2023-07-29T06:20:31;22.50;68.70
13569;DHT22;6856;51.460;7.158;2023-07-29T06:23:05;22.50;68.50
13569;DHT22;6856;51.460;7.158;2023-07-29T06:25:39;22.40;68.30
13569;DHT22;6856;51.460;7.158;2023-07-29T06:28:12;22.40;68.50
13569;DHT22;6856;51.460;7.158;2023-07-29T06:30:46;22.30;68.50
13569;DHT22;6856;51.460;7.158;2023-07-29T06:33:21;22.30;68.40
13569;DHT22;6856;51.460;7.158;2023-07-29T06:35:55;22.30;68.50
13569;DHT22;6856;51.460;7.158;2023-07-29T06:38:29;22.30;68.20
13569;DHT22;6856;51.460;7.158;2023-07-29T06:41:03;22.30;68.00
13569;DHT22;6856;51.460;7.158;2023-07-29T06:43:38;22.30;67.90
13569;DHT22;6856;51.460;7.158;2023-07-29T06:46:12;22.20;67.60
13569;DHT22;6856;51.460;7.158;2023-07-29T06:48:47;22.20;67.40
13569;DHT22;6856;51.460;7.158;2023-07-29T06:51:21;22.20;67.20
13569;DHT22;6856;51.460;7.158;2023-07-29T06:53:54;22.20;67.20
13569;DHT22;6856;51.460;7.158;2023-07-29T06:56:28;22.20;67.10
13569;DHT22;6856;51.460;7.158;2023-07-29T06:59:01;22.10;66.90
13569;DHT22;6856;51.460;7.158;2023-07-29T07:01:35;22.10;67.50
13569;DHT22;6856;51.460;7.158;2023-07-29T07:04:10;22.10;66.70
13569;DHT22;6856;51.460;7.158;2023-07-29T07:06:43;22.10;66.50
13569;DHT22;6856;51.460;7.158;2023-07-29T07:09:17;22.10;66.60
13569;DHT22;6856;51.460;7.158;2023-07-29T07:11:51;22.10;66.70
13569;DHT22;6856;51.460;7.158;2023-07-29T07:14:25;22.10;66.70
13569;DHT22;6856;51.460;7.158;2023-07-29T07:16:59;22.10;66.50
13569;DHT22;6856;51.460;7.158;2023-07-29T07:19:34;22.10;66.60
13569;DHT22;6856;51.460;7.158;2023-07-29T07:22:07;22.10;66.70
13569;DHT22;6856;51.460;7.158;2023-07-29T07:24:41;22.10;66.80
13569;DHT22;6856;51.460;7.158;2023-07-29T07:27:15;22.10;67.00
13569;DHT22;6856;51.460;7.158;2023-07-29T07:29:49;22.10;67.10
13569;DHT22;6856;51.460;7.158;2023-07-29T07:32:24;22.10;67.30
13569;DHT22;6856;51.460;7.158;2023-07-29T07:35:01;22.20;67.70
13569;DHT22;6856;51.460;7.158;2023-07-29T07:37:36;22.20;67.70
13569;DHT22;6856;51.460;7.158;2023-07-29T07:40:10;22.30;67.80
13569;DHT22;6856;51.460;7.158;2023-07-29T07:42:44;22.40;67.90
13569;DHT22;6856;51.460;7.158;2023-07-29T07:45:18;22.50;67.70
13569;DHT22;6856;51.460;7.158;2023-07-29T07:47:52;22.50;67.30
13569;DHT22;6856;51.460;7.158;2023-07-29T07:50:30;22.60;67.10
13569;DHT22;6856;51.460;7.158;2023-07-29T07:53:04;22.70;67.60
13569;DHT22;6856;51.460;7.158;2023-07-29T07:55:38;22.80;66.90
13569;DHT22;6856;51.460;7.158;2023-07-29T07:58:12;22.90;66.70
13569;DHT22;6856;51.460;7.158;2023-07-29T08:00:46;22.90;66.70
13569;DHT22;6856;51.460;7.158;2023-07-29T08:03:20;23.00;66.30
13569;DHT22;6856;51.460;7.158;2023-07-29T08:05:55;23.00;65.50
13569;DHT22;6856;51.460;7.158;2023-07-29T08:08:29;23.00;65.20
13569;DHT22;6856;51.460;7.158;2023-07-29T08:11:03;23.00;65.10
13569;DHT22;6856;51.460;7.158;2023-07-29T08:13:40;23.10;64.80
13569;DHT22;6856;51.460;7.158;2023-07-29T08:16:15;23.10;64.60
13569;DHT22;6856;51.460;7.158;2023-07-29T08:18:48;23.10;65.30
13569;DHT22;6856;51.460;7.158;2023-07-29T08:21:23;23.20;65.60
13569;DHT22;6856;51.460;7.158;2023-07-29T08:23:58;23.30;65.30
13569;DHT22;6856;51.460;7.158;2023-07-29T08:26:31;23.30;64.70
13569;DHT22;6856;51.460;7.158;2023-07-29T08:29:05;23.40;64.60
13569;DHT22;6856;51.460;7.158;2023-07-29T08:31:39;23.50;64.60
13569;DHT22;6856;51.460;7.158;2023-07-29T08:34:13;23.50;64.00
13569;DHT22;6856;51.460;7.158;2023-07-29T08:36:48;23.60;63.70
13569;DHT22;6856;51.460;7.158;2023-07-29T08:39:21;23.70;64.60
13569;DHT22;6856;51.460;7.158;2023-07-29T08:42:01;23.70;64.70
13569;DHT22;6856;51.460;7.158;2023-07-29T08:44:41;23.80;63.60
13569;DHT22;6856;51.460;7.158;2023-07-29T08:47:16;23.90;63.80
13569;DHT22;6856;51.460;7.158;2023-07-29T08:49:52;24.00;63.70
13569;DHT22;6856;51.460;7.158;2023-07-29T08:52:29;24.00;63.60
13569;DHT22;6856;51.460;7.158;2023-07-29T08:55:04;24.20;64.00
13569;DHT22;6856;51.460;7.158;2023-07-29T08:57:39;24.30;63.30
13569;DHT22;6856;51.460;7.158;2023-07-29T09:00:13;24.30;62.30
13569;DHT22;6856;51.460;7.158;2023-07-29T09:02:50;24.40;62.10
13569;DHT22;6856;51.460;7.158;2023-07-29T09:05:25;24.50;61.90
13569;DHT22;6856;51.460;7.158;2023-07-29T09:08:02;24.60;61.60
13569;DHT22;6856;51.460;7.158;2023-07-29T09:10:37;24.60;61.00
13569;DHT22;6856;51.460;7.158;2023-07-29T09:13:11;24.60;61.00
13569;DHT22;6856;51.460;7.158;2023-07-29T09:15:45;24.70;61.10
13569;DHT22;6856;51.460;7.158;2023-07-29T09:18:21;24.70;61.80
13569;DHT22;6856;51.460;7.158;2023-07-29T09:20:59;24.70;61.30
13569;DHT22;6856;51.460;7.158;2023-07-29T09:23:40;24.80;60.80
13569;DHT22;6856;51.460;7.158;2023-07-29T09:26:22;24.90;60.40
13569;DHT22;6856;51.460;7.158;2023-07-29T09:28:57;24.90;60.00
13569;DHT22;6856;51.460;7.158;2023-07-29T09:31:32;24.90;59.90
13569;DHT22;6856;51.460;7.158;2023-07-29T09:34:06;24.90;59.80
13569;DHT22;6856;51.460;7.158;2023-07-29T09:36:41;24.90;59.90
13569;DHT22;6856;51.460;7.158;2023-07-29T09:39:15;24.90;59.70
13569;DHT22;6856;51.460;7.158;2023-07-29T09:41:51;24.90;59.80
13569;DHT22;6856;51.460;7.158;2023-07-29T09:44:24;25.00;60.10
13569;DHT22;6856;51.460;7.158;2023-07-29T09:46:58;25.10;60.40
13569;DHT22;6856;51.460;7.158;2023-07-29T09:49:35;25.10;59.70
13569;DHT22;6856;51.460;7.158;2023-07-29T09:52:10;25.20;59.50
13569;DHT22;6856;51.460;7.158;2023-07-29T09:54:46;25.20;59.70
13569;DHT22;6856;51.460;7.158;2023-07-29T09:57:21;25.30;59.30
13569;DHT22;6856;51.460;7.158;2023-07-29T09:59:54;25.30;59.20
13569;DHT22;6856;51.460;7.158;2023-07-29T10:02:29;25.30;59.10
13569;DHT22;6856;51.460;7.158;2023-07-29T10:05:03;25.20;58.90
13569;DHT22;6856;51.460;7.158;2023-07-29T10:07:40;25.20;58.70
13569;DHT22;6856;51.460;7.158;2023-07-29T10:10:15;25.10;58.50
13569;DHT22;6856;51.460;7.158;2023-07-29T10:12:51;25.10;58.60
13569;DHT22;6856;51.460;7.158;2023-07-29T10:15:26;25.00;58.80
13569;DHT22;6856;51.460;7.158;2023-07-29T10:18:01;25.00;58.70
13569;DHT22;6856;51.460;7.158;2023-07-29T10:20:36;25.00;59.10
13569;DHT22;6856;51.460;7.158;2023-07-29T10:23:12;24.90;59.20
13569;DHT22;6856;51.460;7.158;2023-07-29T10:25:55;24.90;59.50
13569;DHT22;6856;51.460;7.158;2023-07-29T10:28:34;24.90;59.70
13569;DHT22;6856;51.460;7.158;2023-07-29T10:31:13;25.00;59.80
13569;DHT22;6856;51.460;7.158;2023-07-29T10:33:49;25.10;59.90
13569;DHT22;6856;51.460;7.158;2023-07-29T10:36:25;25.20;60.60
13569;DHT22;6856;51.460;7.158;2023-07-29T10:38:59;25.30;60.00
13569;DHT22;6856;51.460;7.158;2023-07-29T10:41:56;25.40;59.80
13569;DHT22;6856;51.460;7.158;2023-07-29T10:44:48;25.50;59.30
13569;DHT22;6856;51.460;7.158;2023-07-29T10:47:24;25.60;58.90
13569;DHT22;6856;51.460;7.158;2023-07-29T10:49:59;25.70;59.70
13569;DHT22;6856;51.460;7.158;2023-07-29T10:52:42;25.80;59.30
13569;DHT22;6856;51.460;7.158;2023-07-29T10:55:25;25.90;58.50
13569;DHT22;6856;51.460;7.158;2023-07-29T10:58:09;26.00;58.30
13569;DHT22;6856;51.460;7.158;2023-07-29T11:00:47;26.00;58.10
13569;DHT22;6856;51.460;7.158;2023-07-29T11:03:22;26.10;57.80
13569;DHT22;6856;51.460;7.158;2023-07-29T11:06:04;26.10;57.80
13569;DHT22;6856;51.460;7.158;2023-07-29T11:08:40;26.10;57.30
13569;DHT22;6856;51.460;7.158;2023-07-29T11:11:14;26.10;57.40
13569;DHT22;6856;51.460;7.158;2023-07-29T11:13:51;26.10;57.80
13569;DHT22;6856;51.460;7.158;2023-07-29T11:16:26;26.10;58.00
13569;DHT22;6856;51.460;7.158;2023-07-29T11:19:01;26.10;57.80
13569;DHT22;6856;51.460;7.158;2023-07-29T11:21:35;26.10;58.20
13569;DHT22;6856;51.460;7.158;2023-07-29T11:24:10;26.20;57.40
13569;DHT22;6856;51.460;7.158;2023-07-29T11:26:47;26.20;57.60
13569;DHT22;6856;51.460;7.158;2023-07-29T11:29:22;26.20;57.00
13569;DHT22;6856;51.460;7.158;2023-07-29T11:31:56;26.20;57.30
13569;DHT22;6856;51.460;7.158;2023-07-29T11:34:31;26.20;57.50
13569;DHT22;6856;51.460;7.158;2023-07-29T11:37:06;26.20;57.10
13569;DHT22;6856;51.460;7.158;2023-07-29T11:39:40;26.30;57.20
13569;DHT22;6856;51.460;7.158;2023-07-29T11:42:14;26.30;56.90
13569;DHT22;6856;51.460;7.158;2023-07-29T11:44:49;26.30;56.60
13569;DHT22;6856;51.460;7.158;2023-07-29T11:47:22;26.40;56.40
13569;DHT22;6856;51.460;7.158;2023-07-29T11:49:59;26.40;56.10
13569;DHT22;6856;51.460;7.158;2023-07-29T11:52:33;26.30;56.10
13569;DHT22;6856;51.460;7.158;2023-07-29T11:55:08;26.30;56.40
13569;DHT22;6856;51.460;7.158;2023-07-29T11:57:43;26.30;56.50
13569;DHT22;6856;51.460;7.158;2023-07-29T12:00:18;26.30;56.10
13569;DHT22;6856;51.460;7.158;2023-07-29T12:02:54;26.20;56.10
13569;DHT22;6856;51.460;7.158;2023-07-29T12:05:28;26.30;56.50
13569;DHT22;6856;51.460;7.158;2023-07-29T12:08:03;26.20;56.40
13569;DHT22;6856;51.460;7.158;2023-07-29T12:10:38;26.20;56.70
13569;DHT22;6856;51.460;7.158;2023-07-29T12:13:12;26.10;56.70
13569;DHT22;6856;51.460;7.158;2023-07-29T12:15:49;26.10;56.80
13569;DHT22;6856;51.460;7.158;2023-07-29T12:18:29;26.10;56.90
13569;DHT22;6856;51.460;7.158;2023-07-29T12:21:04;26.20;57.20
13569;DHT22;6856;51.460;7.158;2023-07-29T12:23:38;26.20;57.20
13569;DHT22;6856;51.460;7.158;2023-07-29T12:26:11;26.20;56.60
13569;DHT22;6856;51.460;7.158;2023-07-29T12:28:46;26.30;56.60
13569;DHT22;6856;51.460;7.158;2023-07-29T12:31:22;26.30;56.70
13569;DHT22;6856;51.460;7.158;2023-07-29T12:34:04;26.30;57.10
13569;DHT22;6856;51.460;7.158;2023-07-29T12:36:43;26.40;56.80
13569;DHT22;6856;51.460;7.158;2023-07-29T12:39:19;26.40;56.40
13569;DHT22;6856;51.460;7.158;2023-07-29T12:41:54;26.40;56.30
13569;DHT22;6856;51.460;7.158;2023-07-29T12:44:31;26.50;56.00
13569;DHT22;6856;51.460;7.158;2023-07-29T12:47:07;26.50;56.00
13569;DHT22;6856;51.460;7.158;2023-07-29T12:49:43;26.60;55.80
13569;DHT22;6856;51.460;7.158;2023-07-29T12:52:17;26.60;56.00
13569;DHT22;6856;51.460;7.158;2023-07-29T12:54:50;26.60;56.00
13569;DHT22;6856;51.460;7.158;2023-07-29T12:57:24;26.60;55.70
13569;DHT22;6856;51.460;7.158;2023-07-29T13:00:00;26.60;55.50
13569;DHT22;6856;51.460;7.158;2023-07-29T13:02:36;26.50;55.00
13569;DHT22;6856;51.460;7.158;2023-07-29T13:05:11;26.50;55.50
13569;DHT22;6856;51.460;7.158;2023-07-29T13:07:49;26.50;55.40
13569;DHT22;6856;51.460;7.158;2023-07-29T13:10:23;26.50;55.50
13569;DHT22;6856;51.460;7.158;2023-07-29T13:12:57;26.60;55.60
13569;DHT22;6856;51.460;7.158;2023-07-29T13:15:32;26.60;55.80
13569;DHT22;6856;51.460;7.158;2023-07-29T13:18:07;26.60;56.00
13569;DHT22;6856;51.460;7.158;2023-07-29T13:20:41;26.70;55.80
13569;DHT22;6856;51.460;7.158;2023-07-29T13:23:15;26.70;55.50
13569;DHT22;6856;51.460;7.158;2023-07-29T13:25:50;26.80;55.40
13569;DHT22;6856;51.460;7.158;2023-07-29T13:28:24;26.90;55.80
13569;DHT22;6856;51.460;7.158;2023-07-29T13:30:57;26.90;55.50
13569;DHT22;6856;51.460;7.158;2023-07-29T13:33:33;26.90;55.20
13569;DHT22;6856;51.460;7.158;2023-07-29T13:36:07;26.90;55.30
13569;DHT22;6856;51.460;7.158;2023-07-29T13:38:41;26.90;55.10
13569;DHT22;6856;51.460;7.158;2023-07-29T13:41:15;26.90;54.90
13569;DHT22;6856;51.460;7.158;2023-07-29T13:43:49;27.00;55.00
13569;DHT22;6856;51.460;7.158;2023-07-29T13:46:23;26.80;54.90
13569;DHT22;6856;51.460;7.158;2023-07-29T13:48:58;26.90;54.50
13569;DHT22;6856;51.460;7.158;2023-07-29T13:51:32;26.90;54.20
13569;DHT22;6856;51.460;7.158;2023-07-29T13:54:06;26.90;54.30
13569;DHT22;6856;51.460;7.158;2023-07-29T13:56:40;26.80;54.30
13569;DHT22;6856;51.460;7.158;2023-07-29T13:59:14;26.70;54.20
13569;DHT22;6856;51.460;7.158;2023-07-29T14:01:47;26.70;54.10
13569;DHT22;6856;51.460;7.158;2023-07-29T14:04:23;26.70;54.30
13569;DHT22;6856;51.460;7.158;2023-07-29T14:06:56;26.50;54.10
13569;DHT22;6856;51.460;7.158;2023-07-29T14:09:30;26.50;54.40
13569;DHT22;6856;51.460;7.158;2023-07-29T14:12:05;26.50;54.80
13569;DHT22;6856;51.460;7.158;2023-07-29T14:14:39;26.40;55.00
13569;DHT22;6856;51.460;7.158;2023-07-29T14:17:12;26.30;55.30
13569;DHT22;6856;51.460;7.158;2023-07-29T14:19:47;26.30;55.50
13569;DHT22;6856;51.460;7.158;2023-07-29T14:22:21;26.20;55.60
13569;DHT22;6856;51.460;7.158;2023-07-29T14:24:55;26.00;56.40
13569;DHT22;6856;51.460;7.158;2023-07-29T14:27:32;25.90;56.00
13569;DHT22;6856;51.460;7.158;2023-07-29T14:30:06;25.80;56.40
13569;DHT22;6856;51.460;7.158;2023-07-29T14:32:41;25.70;56.80
13569;DHT22;6856;51.460;7.158;2023-07-29T14:35:17;25.60;57.10
13569;DHT22;6856;51.460;7.158;2023-07-29T14:37:50;25.50;57.70
13569;DHT22;6856;51.460;7.158;2023-07-29T14:40:25;25.40;57.70
13569;DHT22;6856;51.460;7.158;2023-07-29T14:42:59;25.30;58.30
13569;DHT22;6856;51.460;7.158;2023-07-29T14:45:32;25.30;57.90
13569;DHT22;6856;51.460;7.158;2023-07-29T14:48:06;25.20;58.00
13569;DHT22;6856;51.460;7.158;2023-07-29T14:50:42;25.10;58.20
13569;DHT22;6856;51.460;7.158;2023-07-29T14:53:15;25.00;58.60
13569;DHT22;6856;51.460;7.158;2023-07-29T14:55:50;25.00;59.10
13569;DHT22;6856;51.460;7.158;2023-07-29T14:58:24;25.00;59.20
13569;DHT22;6856;51.460;7.158;2023-07-29T15:00:58;25.00;59.40
13569;DHT22;6856;51.460;7.158;2023-07-29T15:03:32;25.00;59.40
13569;DHT22;6856;51.460;7.158;2023-07-29T15:06:07;25.10;59.30
13569;DHT22;6856;51.460;7.158;2023-07-29T15:08:41;25.10;59.00
13569;DHT22;6856;51.460;7.158;2023-07-29T15:11:14;25.10;59.10
13569;DHT22;6856;51.460;7.158;2023-07-29T15:13:49;25.10;59.20
13569;DHT22;6856;51.460;7.158;2023-07-29T15:16:23;25.10;59.00
13569;DHT22;6856;51.460;7.158;2023-07-29T15:18:58;25.10;59.10
13569;DHT22;6856;51.460;7.158;2023-07-29T15:21:33;25.10;59.20
13569;DHT22;6856;51.460;7.158;2023-07-29T15:24:07;25.10;59.40
13569;DHT22;6856;51.460;7.158;2023-07-29T15:26:41;25.10;59.30
13569;DHT22;6856;51.460;7.158;2023-07-29T15:29:15;25.10;59.80
13569;DHT22;6856;51.460;7.158;2023-07-29T15:31:48;25.10;59.30
13569;DHT22;6856;51.460;7.158;2023-07-29T15:34:22;25.10;59.30
13569;DHT22;6856;51.460;7.158;2023-07-29T15:36:59;25.10;59.10
13569;DHT22;6856;51.460;7.158;2023-07-29T15:39:32;25.10;59.20
13569;DHT22;6856;51.460;7.158;2023-07-29T15:42:06;25.10;59.70
13569;DHT22;6856;51.460;7.158;2023-07-29T15:44:40;25.10;60.00
13569;DHT22;6856;51.460;7.158;2023-07-29T15:47:14;25.10;60.00
13569;DHT22;6856;51.460;7.158;2023-07-29T15:49:50;25.10;59.90
13569;DHT22;6856;51.460;7.158;2023-07-29T15:52:25;25.10;60.00
13569;DHT22;6856;51.460;7.158;2023-07-29T15:55:01;25.20;60.20
13569;DHT22;6856;51.460;7.158;2023-07-29T15:57:35;25.20;60.30
13569;DHT22;6856;51.460;7.158;2023-07-29T16:00:10;25.20;60.50
13569;DHT22;6856;51.460;7.158;2023-07-29T16:02:45;25.20;60.60
13569;DHT22;6856;51.460;7.158;2023-07-29T16:05:19;25.30;60.90
13569;DHT22;6856;51.460;7.158;2023-07-29T16:07:55;25.30;61.10
13569;DHT22;6856;51.460;7.158;2023-07-29T16:10:29;25.30;60.20
13569;DHT22;6856;51.460;7.158;2023-07-29T16:13:03;25.30;59.90
13569;DHT22;6856;51.460;7.158;2023-07-29T16:15:41;25.30;59.50
13569;DHT22;6856;51.460;7.158;2023-07-29T16:18:15;25.30;59.40
13569;DHT22;6856;51.460;7.158;2023-07-29T16:20:48;25.30;59.10
13569;DHT22;6856;51.460;7.158;2023-07-29T16:23:24;25.30;58.90
13569;DHT22;6856;51.460;7.158;2023-07-29T16:25:58;25.20;58.80
13569;DHT22;6856;51.460;7.158;2023-07-29T16:28:33;25.30;58.80
13569;DHT22;6856;51.460;7.158;2023-07-29T16:31:07;25.20;58.60
13569;DHT22;6856;51.460;7.158;2023-07-29T16:33:41;25.20;58.50